createdAt,value
2023-05-19T00:06:43.937Z,9.7985
2023-05-19T00:09:47.280Z,9.7658
2023-05-19T00:10:48.853Z,9.7496
2023-05-19T00:11:50.668Z,9.8086
2023-05-19T00:12:53.857Z,9.6830
2023-05-19T00:13:52.645Z,9.7515
2023-05-19T00:14:53.837Z,9.6587
2023-05-19T00:15:55.048Z,9.6094
2023-05-19T00:16:56.297Z,9.6738
2023-05-19T00:17:58.302Z,9.6727
2023-05-19T00:18:59.609Z,9.7195
2023-05-19T00:20:01.010Z,9.7961
2023-05-19T00:21:02.224Z,9.7364
2023-05-19T00:28:12.801Z,9.6770
2023-05-19T00:29:14.369Z,9.6388
2023-05-19T00:30:16.230Z,9.5722
2023-05-19T00:32:19.615Z,9.6018
2023-05-19T00:33:20.850Z,9.7533
2023-05-19T00:34:22.341Z,9.7332
2023-05-19T00:36:24.844Z,9.5999
2023-05-19T00:37:26.277Z,9.5193
2023-05-19T00:39:29.468Z,9.4888
2023-05-19T00:40:30.908Z,9.4293
2023-05-19T00:42:33.451Z,9.5348
2023-05-19T00:43:34.673Z,9.5202
2023-05-19T00:44:36.443Z,9.5571
2023-05-19T00:45:37.855Z,9.5247
2023-05-19T00:46:40.660Z,9.4820
2023-05-19T00:47:42.737Z,9.3656
2023-05-19T00:48:42.767Z,9.4488
2023-05-19T00:49:44.691Z,9.4268
2023-05-19T00:50:46.232Z,9.3762
2023-05-19T00:51:48.359Z,9.3849
2023-05-19T00:52:49.631Z,9.3463
2023-05-19T00:53:51.524Z,9.4640
2023-05-19T00:54:53.501Z,9.3946
2023-05-19T00:56:55.854Z,9.5068
2023-05-19T00:57:57.130Z,9.4282
2023-05-19T00:58:58.635Z,9.4588
2023-05-19T01:00:00.515Z,9.5373
2023-05-19T01:01:01.760Z,9.5804
2023-05-19T01:02:03.010Z,9.5424
2023-05-19T01:03:04.306Z,9.5610
2023-05-19T01:04:06.321Z,9.4163
2023-05-19T01:05:08.575Z,9.2773
2023-05-19T01:07:11.899Z,9.1410
2023-05-19T01:08:14.257Z,9.0490
2023-05-19T01:09:15.611Z,9.0811
2023-05-19T01:10:17.054Z,9.2550
2023-05-19T01:11:18.993Z,9.3516
2023-05-19T01:12:21.127Z,9.1121
2023-05-19T01:13:22.527Z,9.0492
2023-05-19T01:14:24.766Z,8.9530
2023-05-19T01:15:26.662Z,8.9068
2023-05-19T01:16:28.841Z,8.8775
2023-05-19T01:17:30.440Z,8.8991
2023-05-19T01:19:33.657Z,9.0152
2023-05-19T01:20:37.287Z,8.9145
2023-05-19T01:26:44.877Z,8.7839
2023-05-19T01:27:47.389Z,8.7315
2023-05-19T01:28:48.798Z,8.6879
2023-05-19T01:30:52.439Z,8.5888
2023-05-19T01:31:54.579Z,8.8622
2023-05-19T01:32:57.112Z,8.8838
2023-05-19T01:33:58.345Z,9.0653
2023-05-19T01:35:00.281Z,9.0676
2023-05-19T01:36:02.204Z,8.9521
2023-05-19T01:37:03.474Z,8.8448
2023-05-19T01:38:05.619Z,8.9230
2023-05-19T01:39:06.855Z,8.8577
2023-05-19T01:40:08.075Z,8.9504
2023-05-19T01:41:09.302Z,8.8581
2023-05-19T01:42:10.612Z,9.0206
2023-05-19T01:43:11.953Z,8.9660
2023-05-19T01:46:15.559Z,9.0195
2023-05-19T01:47:16.812Z,8.9396
2023-05-19T01:48:18.064Z,8.8932
2023-05-19T01:49:19.478Z,8.7796
2023-05-19T01:51:22.362Z,8.6272
2023-05-19T01:52:24.730Z,8.9728
2023-05-19T01:54:27.189Z,9.0518
2023-05-19T01:55:28.598Z,8.9972
2023-05-19T01:56:30.004Z,8.8670
2023-05-19T01:57:31.254Z,8.8438
2023-05-19T01:58:32.671Z,8.8790
2023-05-19T01:59:34.103Z,8.8973
2023-05-19T02:00:36.562Z,8.8513
2023-05-19T02:01:38.508Z,8.8239
2023-05-19T02:02:39.964Z,9.0720
2023-05-19T02:04:43.168Z,9.1016
2023-05-19T02:05:45.904Z,9.0527
2023-05-19T02:06:47.347Z,9.0059
2023-05-19T02:07:49.534Z,8.9700
2023-05-19T02:08:51.866Z,8.8962
2023-05-19T02:09:53.134Z,9.0354
2023-05-19T02:11:56.866Z,8.9694
2023-05-19T02:12:58.841Z,8.8710
2023-05-19T02:14:00.334Z,8.8688
2023-05-19T02:15:02.313Z,8.7050
2023-05-19T02:16:03.577Z,8.7436
2023-05-19T02:17:05.250Z,8.7044
2023-05-19T02:18:06.704Z,8.8261
2023-05-19T02:19:08.584Z,8.8556
2023-05-19T02:20:10.005Z,8.8242
2023-05-19T02:21:13.203Z,9.0258
2023-05-19T02:22:12.382Z,8.9822
2023-05-19T02:23:14.054Z,9.0078
2023-05-19T02:24:15.456Z,8.9147
2023-05-19T02:25:16.900Z,8.9076
2023-05-19T02:26:18.128Z,8.8969
2023-05-19T02:27:19.564Z,8.9478
2023-05-19T02:28:21.589Z,8.8726
2023-05-19T02:30:24.739Z,8.6739
2023-05-19T02:31:27.605Z,8.8265
2023-05-19T02:32:29.865Z,8.8310
2023-05-19T02:33:31.076Z,8.9313
2023-05-19T02:34:33.121Z,8.9351
2023-05-19T02:35:35.073Z,8.9792
2023-05-19T02:36:36.849Z,9.0032
2023-05-19T02:37:38.163Z,8.9025
2023-05-19T02:38:40.887Z,8.9853
2023-05-19T02:39:42.879Z,9.0329
2023-05-19T02:40:44.189Z,9.0066
2023-05-19T02:41:45.920Z,9.1311
2023-05-19T02:42:47.312Z,9.0160
2023-05-19T02:43:48.554Z,9.0051
2023-05-19T02:44:49.826Z,9.0607
2023-05-19T02:45:51.072Z,9.0076
2023-05-19T02:46:52.378Z,8.9363
2023-05-19T02:47:53.617Z,8.9445
2023-05-19T02:48:55.507Z,8.8478
2023-05-19T02:50:10.007Z,8.9778
2023-05-19T02:50:58.013Z,8.8579
2023-05-19T02:52:00.002Z,8.8382
2023-05-19T02:53:01.324Z,8.8229
2023-05-19T02:54:03.213Z,8.7645
2023-05-19T02:55:05.098Z,8.9189
2023-05-19T02:56:07.194Z,9.0024
2023-05-19T02:57:09.023Z,8.9462
2023-05-19T02:58:10.271Z,8.9387
2023-05-19T02:59:12.246Z,8.9531
2023-05-19T03:00:14.122Z,8.8815
2023-05-19T03:01:16.092Z,8.8307
2023-05-19T03:02:17.311Z,8.8143
2023-05-19T03:03:19.276Z,8.8219
2023-05-19T03:04:21.262Z,8.9057
2023-05-19T03:05:23.407Z,8.9172
2023-05-19T03:07:26.700Z,8.7839
2023-05-19T03:08:28.758Z,8.6593
2023-05-19T03:09:30.031Z,8.5503
2023-05-19T03:10:31.696Z,8.5223
2023-05-19T03:12:34.427Z,8.7337
2023-05-19T03:14:36.981Z,8.7785
2023-05-19T03:15:39.242Z,8.8348
2023-05-19T03:16:40.591Z,8.8634
2023-05-19T03:17:42.037Z,8.7632
2023-05-19T03:18:43.418Z,8.6732
2023-05-19T03:19:44.586Z,8.7611
2023-05-19T03:20:46.333Z,8.6560
2023-05-19T03:21:48.466Z,8.6378
2023-05-19T03:22:49.868Z,8.6203
2023-05-19T03:23:51.091Z,8.7444
2023-05-19T03:24:52.293Z,8.6763
2023-05-19T03:26:55.268Z,8.6962
2023-05-19T03:27:57.682Z,8.7127
2023-05-19T03:28:58.871Z,8.6934
2023-05-19T03:30:00.794Z,8.5923
2023-05-19T03:31:02.901Z,8.6107
2023-05-19T03:32:04.676Z,8.5922
2023-05-19T03:33:06.088Z,8.5094
2023-05-19T03:34:08.086Z,8.5340
2023-05-19T03:35:09.279Z,8.4912
2023-05-19T03:36:10.506Z,8.5161
2023-05-19T03:37:12.297Z,8.6320
2023-05-19T03:38:14.198Z,8.5429
2023-05-19T03:39:15.434Z,8.5123
2023-05-19T03:40:16.633Z,8.4386
2023-05-19T03:41:18.558Z,8.4275
2023-05-19T03:42:20.440Z,8.7813
2023-05-19T03:44:23.354Z,8.7478
2023-05-19T03:45:25.151Z,8.7195
2023-05-19T03:46:27.016Z,8.6300
2023-05-19T03:47:28.495Z,8.7418
2023-05-19T03:48:30.626Z,8.6666
2023-05-19T03:49:32.645Z,8.4993
2023-05-19T03:50:34.125Z,8.3920
2023-05-19T03:51:36.037Z,8.2638
2023-05-19T03:52:37.889Z,8.3545
2023-05-19T03:53:39.124Z,8.2635
2023-05-19T03:55:42.036Z,8.2268
2023-05-19T03:56:43.927Z,8.2600
2023-05-19T03:58:46.799Z,8.1965
2023-05-19T03:59:48.643Z,8.3913
2023-05-19T04:00:49.855Z,8.3783
2023-05-19T04:01:51.776Z,8.3997
2023-05-19T04:02:53.689Z,8.4594
2023-05-19T04:03:55.014Z,8.4236
2023-05-19T04:04:57.004Z,8.3698
2023-05-19T04:05:58.213Z,8.3378
2023-05-19T04:06:59.475Z,8.4453
2023-05-19T04:08:01.409Z,8.4185
2023-05-19T04:09:03.262Z,8.3887
2023-05-19T04:10:04.496Z,8.4258
2023-05-19T04:11:05.846Z,8.3595
2023-05-19T04:12:07.661Z,8.4232
2023-05-19T04:13:08.924Z,8.3704
2023-05-19T04:15:11.212Z,8.1660
2023-05-19T04:16:12.428Z,8.0994
2023-05-19T04:17:13.633Z,8.1792
2023-05-19T04:19:16.329Z,8.2365
2023-05-19T04:20:17.607Z,8.2723
2023-05-19T04:21:19.732Z,8.4985
2023-05-19T04:23:22.727Z,8.4745
2023-05-19T04:24:24.922Z,8.4418
2023-05-19T04:25:26.105Z,8.4024
2023-05-19T04:27:29.065Z,8.5081
2023-05-19T04:28:30.265Z,8.5240
2023-05-19T04:29:31.451Z,8.4436
2023-05-19T04:30:33.432Z,8.3965
2023-05-19T04:31:35.507Z,8.4770
2023-05-19T04:32:37.473Z,8.4234
2023-05-19T04:33:38.869Z,8.4379
2023-05-19T04:34:40.935Z,8.5736
2023-05-19T04:35:42.769Z,8.6134
2023-05-19T04:36:43.980Z,8.6831
2023-05-19T04:37:45.358Z,8.6765
2023-05-19T04:38:47.153Z,8.7917
2023-05-19T04:39:48.411Z,8.7830
2023-05-19T04:40:49.577Z,8.8298
2023-05-19T04:41:50.793Z,8.9139
2023-05-19T04:42:52.042Z,8.9192
2023-05-19T04:43:53.231Z,8.9391
2023-05-19T04:44:55.092Z,8.9803
2023-05-19T04:45:56.912Z,8.9899
2023-05-19T04:46:58.767Z,9.1057
2023-05-19T04:48:00.238Z,9.0653
2023-05-19T04:49:02.403Z,9.1601
2023-05-19T04:50:04.325Z,9.1145
2023-05-19T04:51:06.278Z,9.1319
2023-05-19T04:52:07.500Z,9.1806
2023-05-19T04:53:08.783Z,9.1861
2023-05-19T04:54:10.737Z,9.2232
2023-05-19T04:55:11.926Z,9.2665
2023-05-19T04:56:13.166Z,9.2743
2023-05-19T04:57:15.066Z,9.3543
2023-05-19T04:58:16.262Z,9.5008
2023-05-19T04:59:17.451Z,9.3533
2023-05-19T05:00:18.708Z,9.3532
2023-05-19T05:01:20.576Z,9.3610
2023-05-19T05:02:22.617Z,9.3238
2023-05-19T05:03:24.665Z,9.4762
2023-05-19T05:04:25.917Z,9.5769
2023-05-19T05:05:27.818Z,9.4771
2023-05-19T05:06:29.788Z,9.4816
2023-05-19T05:07:32.232Z,9.4995
2023-05-19T05:13:39.303Z,9.6409
2023-05-19T05:14:40.541Z,9.7148
2023-05-19T05:15:41.778Z,9.6411
2023-05-19T05:16:43.064Z,9.9264
2023-05-19T05:17:44.671Z,10.0255
2023-05-19T05:18:46.489Z,9.8948
2023-05-19T05:19:48.381Z,10.0644
2023-05-19T05:20:49.597Z,10.0479
2023-05-19T05:21:52.336Z,10.0394
2023-05-19T05:24:53.971Z,10.0749
2023-05-19T05:25:55.863Z,9.9582
2023-05-19T05:26:57.133Z,9.8216
2023-05-19T05:27:59.053Z,9.9198
2023-05-19T05:31:02.377Z,9.7315
2023-05-19T05:35:06.844Z,9.5838
2023-05-19T05:36:08.033Z,9.4572
2023-05-19T05:37:09.265Z,9.5086
2023-05-19T05:38:11.416Z,9.4686
2023-05-19T05:39:12.790Z,9.4650
2023-05-19T05:40:14.776Z,9.4907
2023-05-19T05:41:16.055Z,9.5057
2023-05-19T05:42:17.383Z,9.3978
2023-05-19T05:43:18.623Z,9.3775
2023-05-19T05:44:19.866Z,9.3328
2023-05-19T05:45:21.145Z,9.3856
2023-05-19T05:46:22.503Z,9.3704
2023-05-19T05:47:23.745Z,9.4416
2023-05-19T05:48:25.007Z,9.3263
2023-05-19T05:49:26.251Z,9.2878
2023-05-19T05:50:29.086Z,9.2719
2023-05-19T05:51:30.343Z,9.2747
2023-05-19T05:52:32.167Z,9.2867
2023-05-19T05:53:33.437Z,9.3770
2023-05-19T05:54:34.695Z,9.4041
2023-05-19T05:55:36.531Z,9.3533
2023-05-19T05:56:37.808Z,9.2997
2023-05-19T05:57:39.080Z,9.2204
2023-05-19T05:58:40.967Z,9.2607
2023-05-19T05:59:42.833Z,9.2055
2023-05-19T06:00:44.735Z,9.2736
2023-05-19T06:01:46.848Z,9.2829
2023-05-19T06:02:48.904Z,9.1531
2023-05-19T06:03:50.238Z,9.1357
2023-05-19T06:05:53.621Z,9.2157
2023-05-19T06:06:54.919Z,9.1640
2023-05-19T06:07:56.198Z,9.1186
2023-05-19T06:08:57.506Z,9.1288
2023-05-19T06:10:00.012Z,9.2105
2023-05-19T06:11:01.271Z,9.1641
2023-05-19T06:13:04.755Z,9.1578
2023-05-19T06:14:06.668Z,9.1239
2023-05-19T06:15:07.933Z,9.1253
2023-05-19T06:16:10.396Z,9.1634
2023-05-19T06:17:12.754Z,9.1664
2023-05-19T06:18:14.087Z,9.1466
2023-05-19T06:19:15.401Z,9.1674
2023-05-19T06:21:18.295Z,9.0958
2023-05-19T06:22:19.535Z,9.0608
2023-05-19T06:24:21.861Z,9.0535
2023-05-19T06:25:23.148Z,9.0123
2023-05-19T06:26:24.454Z,9.0160
2023-05-19T06:27:25.691Z,9.0436
2023-05-19T06:28:28.125Z,9.0757
2023-05-19T06:29:29.399Z,9.0913
2023-05-19T06:30:31.586Z,9.0545
2023-05-19T06:31:34.022Z,9.1271
2023-05-19T06:32:35.880Z,9.0691
2023-05-19T06:33:37.162Z,9.1100
2023-05-19T06:34:39.091Z,9.1052
2023-05-19T06:35:41.038Z,9.0706
2023-05-19T06:36:42.420Z,9.0950
2023-05-19T06:37:45.331Z,9.1026
2023-05-19T06:45:52.851Z,9.1180
2023-05-19T06:46:54.146Z,9.1169
2023-05-19T06:47:55.539Z,9.0793
2023-05-19T06:50:59.768Z,9.1554
2023-05-19T06:53:03.579Z,9.1088
2023-05-19T06:54:04.950Z,9.0930
2023-05-19T06:55:06.519Z,9.1534
2023-05-19T06:56:07.869Z,9.2261
2023-05-19T06:57:33.224Z,9.2824
2023-05-19T07:01:14.600Z,9.2443
2023-05-19T07:02:16.648Z,9.2227
2023-05-19T07:03:19.126Z,9.1812
2023-05-19T07:04:20.448Z,9.1429
2023-05-19T07:05:21.682Z,9.2321
2023-05-19T07:06:23.698Z,9.2366
2023-05-19T07:07:25.513Z,9.3142
2023-05-19T07:08:26.821Z,9.3399
2023-05-19T07:09:28.100Z,9.4396
2023-05-19T07:10:30.075Z,9.5133
2023-05-19T07:11:31.373Z,9.5789
2023-05-19T07:12:33.679Z,9.6484
2023-05-19T07:13:34.945Z,9.6252
2023-05-19T07:14:36.957Z,9.9624
2023-05-19T07:15:38.191Z,9.9307
2023-05-19T07:16:39.429Z,9.7109
2023-05-19T07:18:42.648Z,9.8168
2023-05-19T07:19:44.709Z,9.5239
2023-05-19T07:20:46.015Z,9.6534
2023-05-19T07:22:49.026Z,9.7263
2023-05-19T07:23:51.001Z,9.6480
2023-05-19T07:24:52.280Z,9.7379
2023-05-19T07:25:54.269Z,9.6620
2023-05-19T07:26:56.906Z,9.6689
2023-05-19T07:27:59.243Z,9.6845
2023-05-19T07:29:12.214Z,9.9471
2023-05-19T07:30:02.199Z,10.1845
2023-05-19T07:31:03.440Z,10.1167
2023-05-19T07:32:04.737Z,10.1783
2023-05-19T07:33:06.089Z,10.1965
2023-05-19T07:34:07.353Z,10.1694
2023-05-19T07:35:08.622Z,9.9108
2023-05-19T07:36:09.876Z,9.7462
2023-05-19T07:37:11.150Z,9.8262
2023-05-19T07:38:12.472Z,9.9968
2023-05-19T07:43:18.227Z,10.0941
2023-05-19T07:44:19.525Z,10.3496
2023-05-19T07:46:21.943Z,10.4713
2023-05-19T07:47:23.768Z,10.7837
2023-05-19T07:49:26.741Z,10.7763
2023-05-19T07:50:28.808Z,10.9127
2023-05-19T07:51:30.725Z,10.6107
2023-05-19T07:52:31.986Z,11.0512
2023-05-19T07:53:34.001Z,10.7902
2023-05-19T07:54:35.353Z,11.2050
2023-05-19T07:55:36.605Z,11.2813
2023-05-19T07:56:37.872Z,10.9099
2023-05-19T07:57:39.822Z,11.1056
2023-05-19T07:58:41.761Z,11.2849
2023-05-19T07:59:42.993Z,11.0798
2023-05-19T08:00:45.208Z,11.0342
2023-05-19T08:01:47.047Z,10.6646
2023-05-19T08:02:49.451Z,10.9395
2023-05-19T08:04:52.951Z,10.9070
2023-05-19T08:05:54.936Z,10.9478
2023-05-19T08:06:56.220Z,10.8337
2023-05-19T08:07:57.504Z,10.7258
2023-05-19T08:08:59.334Z,10.7143
2023-05-19T08:10:00.605Z,10.9605
2023-05-19T08:11:01.943Z,10.5549
2023-05-19T08:12:03.230Z,10.4213
2023-05-19T08:13:07.040Z,10.5407
2023-05-19T08:16:09.281Z,10.7418
2023-05-19T08:17:11.121Z,10.5335
2023-05-19T08:18:13.021Z,10.8605
2023-05-19T08:19:14.367Z,11.1406
2023-05-19T08:20:16.285Z,11.0702
2023-05-19T08:21:18.400Z,10.7736
2023-05-19T08:22:20.325Z,10.6788
2023-05-19T08:23:22.250Z,10.8758
2023-05-19T08:24:25.313Z,10.8192
2023-05-19T08:25:24.462Z,10.9934
2023-05-19T08:26:26.324Z,10.8712
2023-05-19T08:27:31.079Z,10.9609
2023-05-19T08:40:43.462Z,10.5241
2023-05-19T08:41:44.805Z,10.7419
2023-05-19T08:45:01.321Z,10.6825
2023-05-19T08:45:48.796Z,10.5791
2023-05-19T08:46:50.129Z,10.9712
2023-05-19T08:47:51.505Z,10.8252
2023-05-19T08:48:52.830Z,11.1325
2023-05-19T08:49:54.132Z,11.4527
2023-05-19T08:50:55.413Z,11.2465
2023-05-19T08:51:56.695Z,11.2098
2023-05-19T08:52:57.995Z,11.1966
2023-05-19T08:53:59.207Z,11.2595
2023-05-19T08:55:00.490Z,12.0069
2023-05-19T08:56:01.770Z,12.0322
2023-05-19T08:57:03.152Z,12.1987
2023-05-19T08:58:04.454Z,12.2523
2023-05-19T08:59:05.735Z,11.8250
2023-05-19T09:00:07.044Z,12.0034
2023-05-19T09:01:08.390Z,11.7725
2023-05-19T09:02:09.629Z,12.1402
2023-05-19T09:03:18.105Z,12.2363
2023-05-19T09:04:12.921Z,11.8528
2023-05-19T09:05:14.284Z,12.1304
2023-05-19T09:06:15.582Z,11.7729
2023-05-19T09:07:16.911Z,11.6742
2023-05-19T09:08:18.253Z,11.5769
2023-05-19T09:09:19.796Z,12.0183
2023-05-19T09:10:21.134Z,11.8104
2023-05-19T09:11:22.584Z,11.8852
2023-05-19T09:12:23.962Z,11.4983
2023-05-19T09:14:26.494Z,11.1100
2023-05-19T09:15:27.778Z,11.1650
2023-05-19T09:16:30.184Z,11.5757
2023-05-19T09:17:31.759Z,11.4071
2023-05-19T09:18:33.106Z,11.6363
2023-05-19T09:19:34.493Z,11.6712
2023-05-19T09:20:35.835Z,11.8768
2023-05-19T09:21:37.140Z,12.0484
2023-05-19T09:22:38.454Z,11.9353
2023-05-19T09:23:39.779Z,11.1721
2023-05-19T09:25:42.211Z,10.9976
2023-05-19T09:26:43.513Z,11.1656
2023-05-19T09:27:44.805Z,11.2637
2023-05-19T09:28:46.132Z,11.1912
2023-05-19T09:29:47.423Z,11.7003
2023-05-19T09:30:48.697Z,11.4032
2023-05-19T09:31:50.033Z,10.8602
2023-05-19T09:43:02.731Z,12.1930
2023-05-19T09:44:03.973Z,11.5780
2023-05-19T09:45:05.254Z,12.3053
2023-05-19T09:46:06.782Z,12.0383
2023-05-19T09:47:08.478Z,12.1539
2023-05-19T09:48:09.712Z,12.0106
2023-05-19T09:49:11.030Z,11.9831
2023-05-19T09:50:12.272Z,11.9405
2023-05-19T09:51:13.510Z,12.5447
2023-05-19T09:52:14.777Z,12.5541
2023-05-19T09:53:16.525Z,12.5903
2023-05-19T09:54:17.809Z,12.6851
2023-05-19T09:55:19.091Z,12.6038
2023-05-19T09:56:20.377Z,12.8047
2023-05-19T09:57:21.751Z,12.2962
2023-05-19T09:58:23.037Z,12.2037
2023-05-19T09:59:24.366Z,12.6224
2023-05-19T10:00:25.657Z,12.9244
2023-05-19T10:01:26.990Z,12.4371
2023-05-19T10:02:28.512Z,12.3727
2023-05-19T10:03:29.878Z,12.1046
2023-05-19T10:04:31.465Z,12.9006
2023-05-19T10:05:32.957Z,13.2717
2023-05-19T10:06:34.511Z,13.3490
2023-05-19T10:07:35.753Z,13.2959
2023-05-19T10:08:37.047Z,13.1912
2023-05-19T10:09:38.298Z,13.3337
2023-05-19T10:10:39.657Z,13.3463
2023-05-19T10:11:40.909Z,13.1061
2023-05-19T10:12:42.230Z,12.8095
2023-05-19T10:14:45.045Z,12.6296
2023-05-19T10:15:57.067Z,12.5685
2023-05-19T10:16:48.029Z,12.8531
2023-05-19T10:17:49.475Z,13.1142
2023-05-19T10:18:50.840Z,12.8201
2023-05-19T10:19:52.128Z,13.0792
2023-05-19T10:20:53.537Z,12.7098
2023-05-19T10:21:54.870Z,12.5116
2023-05-19T10:22:56.225Z,12.4208
2023-05-19T10:23:57.519Z,12.6988
2023-05-19T10:28:02.261Z,12.3089
2023-05-19T10:48:25.660Z,13.1911
2023-05-19T10:49:26.965Z,12.6540
2023-05-19T10:50:28.372Z,12.8194
2023-05-19T10:51:29.690Z,12.8391
2023-05-19T10:52:31.014Z,13.4991
2023-05-19T10:54:33.604Z,13.0168
2023-05-19T10:55:35.083Z,13.5761
2023-05-19T10:56:36.781Z,13.9170
2023-05-19T10:57:38.182Z,13.8957
2023-05-19T10:58:39.504Z,13.9629
2023-05-19T10:59:40.889Z,13.5802
2023-05-19T11:00:42.223Z,14.4761
2023-05-19T11:01:43.762Z,14.2872
2023-05-19T11:02:45.091Z,14.0118
2023-05-19T11:03:46.455Z,13.6040
2023-05-19T11:04:50.239Z,13.8801
2023-05-19T11:05:50.336Z,13.9897
2023-05-19T11:06:51.801Z,13.5517
2023-05-19T11:07:53.198Z,13.5653
2023-05-19T11:08:54.535Z,13.0820
2023-05-19T11:09:55.836Z,12.8914
2023-05-19T11:10:57.224Z,13.0799
2023-05-19T11:11:58.528Z,13.3751
2023-05-19T11:12:59.933Z,12.9700
2023-05-19T11:15:02.367Z,13.5741
2023-05-19T11:16:03.753Z,13.8627
2023-05-19T11:17:05.155Z,13.4831
2023-05-19T11:18:06.550Z,13.3288
2023-05-19T11:19:08.017Z,13.1214
2023-05-19T11:20:09.373Z,13.7432
2023-05-19T11:21:10.702Z,14.6590
2023-05-19T11:22:12.027Z,14.6377
2023-05-19T11:23:13.383Z,14.8284
2023-05-19T11:24:14.635Z,14.0660
2023-05-19T11:25:15.957Z,14.4064
2023-05-19T11:26:17.256Z,13.4269
2023-05-19T11:27:18.573Z,13.5777
2023-05-19T11:28:20.139Z,13.3923
2023-05-19T11:29:21.532Z,12.8982
2023-05-19T11:30:22.831Z,12.9403
2023-05-19T11:31:24.147Z,12.6479
2023-05-19T11:32:25.522Z,12.8822
2023-05-19T11:33:26.835Z,13.0962
2023-05-19T11:34:28.155Z,13.3593
2023-05-19T11:36:30.667Z,13.3395
2023-05-19T11:37:31.956Z,14.5572
2023-05-19T11:38:33.263Z,14.5514
2023-05-19T11:39:34.596Z,14.4397
2023-05-19T11:40:35.898Z,13.7611
2023-05-19T11:41:37.277Z,14.5953
2023-05-19T11:42:38.580Z,15.3147
2023-05-19T11:43:39.912Z,15.4910
2023-05-19T11:44:41.300Z,16.1856
2023-05-19T11:46:43.877Z,14.8046
2023-05-19T11:48:00.284Z,15.6455
2023-05-19T11:48:46.966Z,14.6411
2023-05-19T11:50:14.740Z,14.7951
2023-05-19T11:51:16.125Z,14.3839
2023-05-19T11:52:17.519Z,14.9369
2023-05-19T11:53:18.995Z,14.3021
2023-05-19T11:54:20.557Z,15.5635
2023-05-19T11:55:21.956Z,15.2125
2023-05-19T11:56:23.355Z,15.3219
2023-05-19T11:57:24.726Z,15.5945
2023-05-19T11:58:26.072Z,15.2509
2023-05-19T11:59:27.480Z,15.1450
2023-05-19T12:00:28.916Z,15.8913
2023-05-19T12:01:30.285Z,15.7661
2023-05-19T12:02:31.874Z,16.5338
2023-05-19T12:03:33.407Z,15.3144
2023-05-19T12:04:34.864Z,16.6493
2023-05-19T12:05:39.915Z,15.9943
2023-05-19T12:06:38.125Z,16.1884
2023-05-19T12:07:39.636Z,16.8580
2023-05-19T12:08:40.983Z,15.6714
2023-05-19T12:09:42.387Z,16.0000
2023-05-19T12:10:43.802Z,15.0187
2023-05-19T12:11:45.150Z,15.1107
2023-05-19T12:12:46.557Z,14.8501
2023-05-19T12:15:50.453Z,14.9360
2023-05-19T12:16:52.042Z,15.4613
2023-05-19T12:17:53.551Z,15.4203
2023-05-19T12:18:54.951Z,15.2351
2023-05-19T12:19:56.376Z,16.0023
2023-05-19T12:20:58.032Z,15.9310
2023-05-19T12:21:59.444Z,15.6471
2023-05-19T12:23:01.036Z,15.5773
2023-05-19T12:24:02.678Z,16.0506
2023-05-19T12:26:05.281Z,15.9362
2023-05-19T12:27:06.720Z,15.0564
2023-05-19T12:28:08.190Z,15.2569
2023-05-19T12:29:09.704Z,16.2770
2023-05-19T12:30:11.284Z,16.8203
2023-05-19T12:31:12.750Z,16.5569
2023-05-19T12:32:14.146Z,16.4520
2023-05-19T12:33:15.637Z,15.6429
2023-05-19T12:34:17.035Z,16.1389
2023-05-19T12:35:18.553Z,15.6723
2023-05-19T12:37:21.221Z,16.3433
2023-05-19T12:55:43.824Z,15.0023
2023-05-19T12:56:45.186Z,15.3304
2023-05-19T12:57:47.982Z,15.5899
2023-05-19T12:58:47.276Z,16.4043
2023-05-19T12:59:48.601Z,15.7703
2023-05-19T13:00:50.180Z,15.6548
2023-05-19T13:01:51.765Z,15.0724
2023-05-19T13:03:54.478Z,15.2200
2023-05-19T13:04:56.115Z,15.4696
2023-05-19T13:05:57.485Z,15.5922
2023-05-19T13:06:58.958Z,16.0200
2023-05-19T13:08:00.362Z,15.7206
2023-05-19T13:09:01.695Z,15.8051
2023-05-19T13:10:03.081Z,15.9668
2023-05-19T13:11:04.440Z,16.3515
2023-05-19T13:12:05.847Z,16.0722
2023-05-19T13:14:08.374Z,15.6356
2023-05-19T13:15:09.833Z,14.5659
2023-05-19T13:16:11.273Z,14.3580
2023-05-19T13:19:24.986Z,13.9293
2023-05-19T13:20:17.170Z,13.9941
2023-05-19T13:21:18.521Z,14.0895
2023-05-19T13:22:19.853Z,14.0021
2023-05-19T13:23:21.258Z,14.0768
2023-05-19T13:24:22.642Z,14.0570
2023-05-19T13:25:24.026Z,14.2063
2023-05-19T13:26:25.425Z,14.4756
2023-05-19T13:27:26.806Z,14.4374
2023-05-19T13:28:28.221Z,14.4418
2023-05-19T13:29:29.604Z,14.8049
2023-05-19T13:30:31.050Z,14.9573
2023-05-19T13:31:32.635Z,14.4529
2023-05-19T13:32:34.070Z,14.5344
2023-05-19T13:33:35.573Z,14.4465
2023-05-19T13:35:38.432Z,14.3865
2023-05-19T13:36:40.045Z,14.0379
2023-05-19T13:37:41.455Z,14.0558
2023-05-19T13:38:43.006Z,14.0922
2023-05-19T13:39:44.314Z,14.2196
2023-05-19T13:40:45.724Z,13.9055
2023-05-19T13:41:47.189Z,14.0058
2023-05-19T13:42:48.617Z,14.1138
2023-05-19T13:43:49.972Z,14.5326
2023-05-19T13:44:51.529Z,14.1599
2023-05-19T13:45:52.936Z,14.2672
2023-05-19T13:47:55.685Z,14.6005
2023-05-19T13:48:57.046Z,14.2834
2023-05-19T13:49:58.478Z,14.6346
2023-05-19T13:50:59.891Z,14.5786
2023-05-19T13:52:02.167Z,14.6997
2023-05-19T13:53:03.542Z,14.7881
2023-05-19T13:54:05.301Z,14.9737
2023-05-19T13:55:06.695Z,14.7669
2023-05-19T13:56:08.255Z,14.8831
2023-05-19T13:57:09.606Z,15.0473
2023-05-19T13:58:11.048Z,14.9041
2023-05-19T13:59:12.581Z,14.4926
2023-05-19T14:01:15.245Z,14.3592
2023-05-19T14:02:16.676Z,14.2588
2023-05-19T14:03:18.126Z,14.3347
2023-05-19T14:04:19.697Z,14.3415
2023-05-19T14:05:21.522Z,14.0892
2023-05-19T14:06:22.894Z,13.9217
2023-05-19T14:07:24.217Z,13.7747
2023-05-19T14:08:25.650Z,13.6728
2023-05-19T14:09:28.080Z,13.6796
2023-05-19T14:10:27.875Z,13.6408
2023-05-19T14:11:29.219Z,13.7534
2023-05-19T14:12:38.159Z,13.6810
2023-05-19T14:13:36.123Z,13.7582
2023-05-19T14:14:34.543Z,13.5279
2023-05-19T14:15:35.978Z,13.5604
2023-05-19T14:16:38.286Z,13.5573
2023-05-19T14:17:39.889Z,13.6064
2023-05-19T14:18:41.344Z,13.7083
2023-05-19T14:19:42.783Z,13.6149
2023-05-19T14:21:45.381Z,13.6516
2023-05-19T14:22:46.793Z,13.7651
2023-05-19T14:23:48.166Z,13.8157
2023-05-19T14:24:49.491Z,13.8486
2023-05-19T14:25:50.868Z,14.0200
2023-05-19T14:26:52.227Z,13.8858
2023-05-19T14:27:53.655Z,13.8957
2023-05-19T14:28:55.003Z,13.8713
2023-05-19T14:29:56.703Z,14.2202
2023-05-19T14:31:59.865Z,13.9457
2023-05-19T14:33:01.364Z,13.8442
2023-05-19T14:34:02.807Z,13.8770
2023-05-19T14:35:04.178Z,13.7923
2023-05-19T14:36:05.604Z,13.8062
2023-05-19T14:37:06.993Z,13.6634
2023-05-19T14:38:08.384Z,13.6732
2023-05-19T14:39:09.759Z,13.6848
2023-05-19T14:41:12.383Z,13.9376
2023-05-19T14:42:13.789Z,13.7810
2023-05-19T14:43:15.240Z,13.8628
2023-05-19T14:44:16.550Z,13.8610
2023-05-19T14:45:18.897Z,13.8056
2023-05-19T14:46:20.372Z,13.8528
2023-05-19T14:47:21.762Z,13.8792
2023-05-19T14:48:23.162Z,14.0542
2023-05-19T14:49:24.593Z,14.0529
2023-05-19T14:50:27.849Z,13.9683
2023-05-19T14:51:27.776Z,14.2269
2023-05-19T14:52:29.204Z,14.5832
2023-05-19T14:53:30.669Z,14.5048
2023-05-19T14:54:32.053Z,14.5156
2023-05-19T14:55:33.463Z,14.2422
2023-05-19T14:56:34.906Z,14.0859
2023-05-19T14:57:36.353Z,13.8306
2023-05-19T14:58:37.794Z,13.9030
2023-05-19T14:59:39.177Z,14.0114
2023-05-19T15:00:40.630Z,13.9102
2023-05-19T15:01:42.037Z,13.9028
2023-05-19T15:02:43.532Z,14.0792
2023-05-19T15:03:44.990Z,13.9336
2023-05-19T15:06:58.234Z,13.9582
2023-05-19T15:07:50.802Z,14.0266
2023-05-19T15:08:52.204Z,13.8482
2023-05-19T15:09:53.635Z,13.9628
2023-05-19T15:10:55.053Z,14.0331
2023-05-19T15:11:56.411Z,14.1512
2023-05-19T15:12:58.091Z,14.1832
2023-05-19T15:16:12.365Z,14.1002
2023-05-19T15:17:03.617Z,14.1109
2023-05-19T15:18:05.287Z,13.9861
2023-05-19T15:19:06.697Z,13.8413
2023-05-19T15:20:08.140Z,13.8309
2023-05-19T15:21:09.586Z,13.7601
2023-05-19T15:22:11.023Z,13.7062
2023-05-19T15:23:12.386Z,13.5473
2023-05-19T15:25:16.394Z,13.3750
2023-05-19T15:26:17.884Z,13.2854
2023-05-19T15:27:19.990Z,13.1869
2023-05-19T15:28:21.499Z,13.1341
2023-05-19T15:29:23.617Z,13.1723
2023-05-19T15:31:25.215Z,13.0296
2023-05-19T15:32:26.591Z,12.9427
2023-05-19T15:33:28.555Z,12.9517
2023-05-19T15:34:29.908Z,12.9924